createdAt,value
2023-04-20T00:00:11.731Z,15.60
2023-04-20T00:01:08.780Z,15.10
2023-04-20T00:01:42.459Z,16.40
2023-04-20T00:02:16.770Z,15.60
2023-04-20T00:02:50.514Z,15.60
2023-04-20T00:03:24.064Z,16.10
2023-04-20T00:03:57.675Z,15.80
2023-04-20T00:04:31.201Z,15.60
2023-04-20T00:05:09.317Z,16.00
2023-04-20T00:05:43.395Z,15.60
2023-04-20T00:06:19.034Z,15.20
2023-04-20T00:06:53.169Z,16.30
2023-04-20T00:07:27.645Z,16.50
2023-04-20T00:08:01.413Z,15.50
2023-04-20T00:08:34.841Z,16.40
2023-04-20T00:09:08.775Z,15.90
2023-04-20T00:09:42.035Z,15.70
2023-04-20T00:10:15.748Z,15.70
2023-04-20T00:10:49.114Z,15.80
2023-04-20T00:11:22.362Z,16.00
2023-04-20T00:11:55.605Z,15.70
2023-04-20T00:12:28.970Z,15.30
2023-04-20T00:13:02.178Z,15.60
2023-04-20T00:13:35.553Z,15.80
2023-04-20T00:14:08.855Z,15.50
2023-04-20T00:14:42.136Z,16.10
2023-04-20T00:15:17.560Z,15.60
2023-04-20T00:15:54.389Z,14.90
2023-04-20T00:16:29.100Z,16.20
2023-04-20T00:17:02.689Z,16.20
2023-04-20T00:17:39.609Z,15.80
2023-04-20T00:18:14.254Z,15.10
2023-04-20T00:18:48.062Z,15.60
2023-04-20T00:19:21.313Z,14.70
2023-04-20T00:19:57.407Z,15.70
2023-04-20T00:20:32.977Z,15.20
2023-04-20T00:21:06.730Z,15.30
2023-04-20T00:21:40.046Z,15.30
2023-04-20T00:22:13.903Z,16.00
2023-04-20T00:22:47.180Z,15.70
2023-04-20T00:23:22.490Z,15.50
2023-04-20T00:23:56.051Z,16.40
2023-04-20T00:24:29.471Z,15.80
2023-04-20T00:25:03.322Z,16.00
2023-04-20T00:25:36.782Z,16.20
2023-04-20T00:26:10.061Z,16.20
2023-04-20T00:26:44.078Z,16.10
2023-04-20T00:27:20.044Z,16.20
2023-04-20T00:27:53.353Z,15.60
2023-04-20T00:28:26.664Z,16.20
2023-04-20T00:28:59.931Z,16.20
2023-04-20T00:29:33.442Z,16.30
2023-04-20T00:30:07.576Z,16.20
2023-04-20T00:30:41.103Z,16.60
2023-04-20T00:31:14.542Z,15.80
2023-04-20T00:31:48.090Z,16.40
2023-04-20T00:32:21.305Z,16.60
2023-04-20T00:32:54.936Z,16.70
2023-04-20T00:33:28.249Z,16.40
2023-04-20T00:34:01.582Z,16.20
2023-04-20T00:34:34.810Z,16.70
2023-04-20T00:35:08.539Z,16.10
2023-04-20T00:35:41.663Z,15.60
2023-04-20T00:36:15.183Z,16.80
2023-04-20T00:36:48.551Z,16.70
2023-04-20T00:37:21.807Z,16.10
2023-04-20T00:37:55.027Z,15.90
2023-04-20T00:38:28.639Z,16.70
2023-04-20T00:39:02.596Z,17.30
2023-04-20T00:39:36.234Z,17.20
2023-04-20T00:40:10.203Z,16.90
2023-04-20T00:40:44.748Z,17.10
2023-04-20T00:41:18.048Z,16.10
2023-04-20T00:41:51.302Z,16.30
2023-04-20T00:42:25.290Z,17.00
2023-04-20T00:42:58.614Z,17.40
2023-04-20T00:43:32.029Z,17.10
2023-04-20T00:44:08.185Z,16.40
2023-04-20T00:44:41.480Z,17.00
2023-04-20T00:45:14.850Z,16.60
2023-04-20T00:45:49.025Z,16.90
2023-04-20T00:46:22.761Z,17.20
2023-04-20T00:46:57.708Z,17.20
2023-04-20T00:47:32.142Z,16.70
2023-04-20T00:48:08.732Z,16.80
2023-04-20T00:48:42.017Z,16.70
2023-04-20T00:49:16.734Z,17.10
2023-04-20T00:49:50.494Z,16.00
2023-04-20T00:50:24.106Z,16.70
2023-04-20T00:50:57.575Z,16.60
2023-04-20T00:51:32.105Z,16.70
2023-04-20T00:52:05.969Z,17.10
2023-04-20T00:52:41.084Z,16.00
2023-04-20T00:53:14.392Z,16.80
2023-04-20T00:53:47.762Z,16.20
2023-04-20T00:54:22.135Z,16.20
2023-04-20T00:54:56.099Z,16.60
2023-04-20T00:55:30.875Z,17.00
2023-04-20T00:56:04.623Z,17.00
2023-04-20T00:56:39.446Z,16.90
2023-04-20T00:57:14.761Z,16.40
2023-04-20T00:57:49.160Z,16.80
2023-04-20T00:58:22.917Z,17.00
2023-04-20T00:58:58.186Z,16.40
2023-04-20T00:59:32.592Z,17.00
2023-04-20T01:00:07.682Z,17.00
2023-04-20T01:00:40.893Z,17.00
2023-04-20T01:01:17.862Z,17.00
2023-04-20T01:01:52.822Z,16.50
2023-04-20T01:02:26.365Z,17.10
2023-04-20T01:02:59.993Z,17.00
2023-04-20T01:03:33.809Z,16.50
2023-04-20T01:04:10.217Z,16.40
2023-04-20T01:04:43.539Z,16.90
2023-04-20T01:05:16.877Z,17.20
2023-04-20T01:05:50.630Z,16.60
2023-04-20T01:06:24.127Z,17.90
2023-04-20T01:07:00.301Z,16.80
2023-04-20T01:07:33.716Z,17.00
2023-04-20T01:08:07.242Z,17.20
2023-04-20T01:08:48.971Z,17.50
2023-04-20T01:09:22.370Z,16.30
2023-04-20T01:09:56.500Z,17.00
2023-04-20T01:10:30.783Z,16.10
2023-04-20T01:11:04.234Z,15.00
2023-04-20T01:11:37.779Z,15.10
2023-04-20T01:12:11.849Z,15.90
2023-04-20T01:12:45.964Z,14.90
2023-04-20T01:13:19.307Z,15.00
2023-04-20T01:13:52.869Z,14.20
2023-04-20T01:14:26.598Z,13.50
2023-04-20T01:15:00.055Z,14.80
2023-04-20T01:15:35.485Z,14.80
2023-04-20T01:16:08.865Z,14.30
2023-04-20T01:16:42.778Z,14.80
2023-04-20T01:17:18.541Z,14.50
2023-04-20T01:17:52.580Z,15.80
2023-04-20T01:18:27.348Z,15.10
2023-04-20T01:19:00.796Z,15.40
2023-04-20T01:19:34.199Z,16.30
2023-04-20T01:20:12.713Z,15.50
2023-04-20T01:20:48.131Z,16.90
2023-04-20T01:21:26.492Z,16.70
2023-04-20T01:21:59.928Z,16.50
2023-04-20T01:22:33.238Z,16.90
2023-04-20T01:23:06.483Z,16.70
2023-04-20T01:23:40.210Z,16.40
2023-04-20T01:24:13.757Z,16.00
2023-04-20T01:24:48.046Z,14.40
2023-04-20T01:25:22.294Z,12.30
2023-04-20T01:25:55.597Z,12.00
2023-04-20T01:26:28.929Z,11.60
2023-04-20T01:27:02.691Z,12.20
2023-04-20T01:27:36.135Z,12.10
2023-04-20T01:28:09.651Z,11.90
2023-04-20T01:28:44.341Z,11.90
2023-04-20T01:29:18.094Z,11.40
2023-04-20T01:29:51.855Z,10.70
2023-04-20T01:30:25.502Z,9.50
2023-04-20T01:30:59.690Z,9.40
2023-04-20T01:31:33.525Z,9.00
2023-04-20T01:32:08.167Z,9.10
2023-04-20T01:32:41.824Z,9.20
2023-04-20T01:33:15.309Z,10.00
2023-04-20T01:33:49.252Z,8.80
2023-04-20T01:34:22.676Z,9.70
2023-04-20T01:34:57.223Z,9.40
2023-04-20T01:35:30.707Z,9.70
2023-04-20T01:36:05.874Z,9.40
2023-04-20T01:36:39.602Z,8.20
2023-04-20T01:37:13.730Z,9.20
2023-04-20T01:37:47.092Z,9.00
2023-04-20T01:38:21.884Z,9.60
2023-04-20T01:38:55.335Z,9.40
2023-04-20T01:39:29.051Z,9.40
2023-04-20T01:40:02.991Z,10.10
2023-04-20T01:40:36.602Z,9.00
2023-04-20T01:41:10.770Z,9.40
2023-04-20T01:41:46.538Z,9.40
2023-04-20T01:42:19.972Z,9.00
2023-04-20T01:42:53.239Z,9.30
2023-04-20T01:43:29.255Z,8.80
2023-04-20T01:44:02.585Z,9.40
2023-04-20T01:44:37.994Z,8.40
2023-04-20T01:45:11.478Z,8.10
2023-04-20T01:45:44.844Z,9.10
2023-04-20T01:46:18.938Z,9.00
2023-04-20T01:46:53.650Z,9.00
2023-04-20T01:47:27.043Z,8.40
2023-04-20T01:48:01.425Z,8.20
2023-04-20T01:48:35.153Z,8.00
2023-04-20T01:51:18.612Z,7.20
2023-04-20T01:51:52.405Z,7.00
2023-04-20T01:52:25.846Z,7.50
2023-04-20T01:52:59.341Z,8.40
2023-04-20T01:53:32.743Z,7.70
2023-04-20T01:54:06.514Z,8.20
2023-04-20T01:54:41.499Z,8.10
2023-04-20T01:55:15.421Z,8.10
2023-04-20T01:55:50.509Z,8.10
2023-04-20T01:56:23.976Z,7.70
2023-04-20T01:56:58.298Z,8.10
2023-04-20T01:57:32.682Z,8.40
2023-04-20T01:58:06.161Z,7.90
2023-04-20T01:58:40.244Z,7.30
2023-04-20T01:59:13.748Z,8.20
2023-04-20T01:59:47.210Z,7.70
2023-04-20T02:00:20.983Z,7.80
2023-04-20T02:00:56.316Z,8.20
2023-04-20T02:01:29.835Z,8.30
2023-04-20T02:02:06.350Z,7.80
2023-04-20T02:02:40.046Z,8.10
2023-04-20T02:03:14.042Z,8.10
2023-04-20T02:03:49.811Z,8.20
2023-04-20T02:04:24.445Z,7.80
2023-04-20T02:04:57.898Z,7.60
2023-04-20T02:05:31.242Z,7.80
2023-04-20T02:06:05.218Z,7.70
2023-04-20T02:06:38.871Z,7.90
2023-04-20T02:07:13.773Z,8.40
2023-04-20T02:07:47.057Z,8.40
2023-04-20T02:08:20.789Z,8.10
2023-04-20T02:08:54.046Z,8.70
2023-04-20T02:09:27.604Z,7.90
2023-04-20T02:10:01.194Z,8.30
2023-04-20T02:10:34.769Z,8.50
2023-04-20T02:11:08.169Z,8.40
2023-04-20T02:11:42.173Z,8.00
2023-04-20T02:12:15.563Z,7.60
2023-04-20T02:12:50.301Z,8.40
2023-04-20T02:13:23.554Z,8.10
2023-04-20T02:13:57.081Z,8.30
2023-04-20T02:14:30.623Z,8.40
2023-04-20T02:15:05.922Z,8.40
2023-04-20T02:15:39.111Z,7.90
2023-04-20T02:16:12.900Z,8.20
2023-04-20T02:16:47.966Z,8.30
2023-04-20T02:17:21.446Z,8.60
2023-04-20T02:17:54.734Z,8.70
2023-04-20T02:18:28.019Z,8.60
2023-04-20T02:19:01.383Z,8.70
2023-04-20T02:19:34.953Z,8.10
2023-04-20T02:20:09.687Z,8.60
2023-04-20T02:20:44.573Z,8.80
2023-04-20T02:21:19.423Z,8.50
2023-04-20T02:21:52.692Z,8.40
2023-04-20T02:22:25.877Z,8.80
2023-04-20T02:22:59.272Z,8.50
2023-04-20T02:23:32.494Z,7.70
2023-04-20T02:24:06.538Z,8.10
2023-04-20T02:24:39.897Z,8.20
2023-04-20T02:25:15.252Z,8.90
2023-04-20T02:25:49.620Z,8.40
2023-04-20T02:26:23.099Z,8.00
2023-04-20T02:26:57.283Z,8.30
2023-04-20T02:27:31.895Z,8.30
2023-04-20T02:28:05.852Z,8.00
2023-04-20T02:28:39.233Z,8.60
2023-04-20T02:29:12.533Z,8.90
2023-04-20T02:29:45.976Z,9.10
2023-04-20T02:30:19.897Z,8.70
2023-04-20T02:30:53.242Z,8.80
2023-04-20T02:31:26.976Z,9.20
2023-04-20T02:32:00.223Z,8.80
2023-04-20T02:32:33.542Z,9.20
2023-04-20T02:33:07.077Z,8.90
2023-04-20T02:33:40.973Z,8.90
2023-04-20T02:34:14.372Z,9.00
2023-04-20T02:34:50.674Z,8.90
2023-04-20T02:35:26.090Z,9.00
2023-04-20T02:35:59.444Z,9.20
2023-04-20T02:36:32.951Z,9.20
2023-04-20T02:37:06.552Z,8.90
2023-04-20T02:37:41.299Z,8.80
2023-04-20T02:38:14.940Z,8.80
2023-04-20T02:38:48.267Z,9.50
2023-04-20T02:39:21.640Z,8.90
2023-04-20T02:39:54.948Z,8.90
2023-04-20T02:40:28.457Z,9.60
2023-04-20T02:41:02.212Z,9.20
2023-04-20T02:41:36.156Z,10.00
2023-04-20T02:42:09.725Z,10.00
2023-04-20T02:42:43.138Z,9.40
2023-04-20T02:43:16.747Z,9.10
2023-04-20T02:43:50.637Z,9.70
2023-04-20T02:44:23.948Z,9.40
2023-04-20T02:44:57.447Z,9.20
2023-04-20T02:45:31.036Z,10.00
2023-04-20T02:46:05.153Z,9.60
2023-04-20T02:46:38.741Z,9.80
2023-04-20T02:47:12.648Z,9.60
2023-04-20T02:47:49.371Z,9.70
2023-04-20T02:48:23.695Z,9.50
2023-04-20T02:48:57.256Z,9.30
2023-04-20T02:49:30.943Z,9.50
2023-04-20T02:50:04.901Z,8.60
2023-04-20T02:50:39.817Z,9.00
2023-04-20T02:51:24.916Z,8.40
2023-04-20T02:51:58.519Z,8.90
2023-04-20T02:52:32.238Z,9.60
2023-04-20T02:53:06.276Z,9.60
2023-04-20T02:53:41.200Z,9.40
2023-04-20T02:54:33.072Z,8.70
2023-04-20T02:55:06.912Z,8.70
2023-04-20T02:55:40.919Z,9.20
2023-04-20T02:56:29.699Z,8.20
2023-04-20T02:57:07.264Z,9.40
2023-04-20T02:57:40.609Z,9.20
2023-04-20T02:58:14.413Z,8.90
2023-04-20T02:59:25.944Z,7.60
2023-04-20T03:00:09.234Z,8.60
2023-04-20T03:01:01.910Z,7.70
2023-04-20T03:01:35.927Z,8.50
2023-04-20T03:02:42.973Z,7.80
2023-04-20T03:03:16.512Z,8.10
2023-04-20T03:03:50.056Z,9.00
2023-04-20T03:04:23.648Z,8.50
2023-04-20T03:05:22.123Z,8.10
2023-04-20T03:05:56.748Z,8.70
2023-04-20T03:06:30.696Z,8.20
2023-04-20T03:07:05.251Z,8.60
2023-04-20T03:07:41.585Z,8.10
2023-04-20T03:08:16.717Z,8.60
2023-04-20T03:08:51.006Z,8.70
2023-04-20T03:09:42.855Z,8.20
2023-04-20T03:10:32.344Z,7.60
2023-04-20T03:11:17.016Z,7.90
2023-04-20T03:11:50.738Z,8.20
2023-04-20T03:12:36.116Z,7.80
2023-04-20T03:13:21.661Z,8.20
2023-04-20T03:14:07.574Z,8.20
2023-04-20T03:14:41.040Z,8.10
2023-04-20T03:15:15.757Z,8.80
2023-04-20T03:16:21.499Z,7.90
2023-04-20T03:17:00.666Z,8.00
2023-04-20T03:17:34.554Z,8.30
2023-04-20T03:18:08.687Z,8.60
2023-04-20T03:18:42.051Z,9.00
2023-04-20T03:19:16.506Z,9.20
2023-04-20T03:19:52.918Z,8.80
2023-04-20T03:20:26.437Z,8.50
2023-04-20T03:20:59.738Z,9.20
2023-04-20T03:21:34.644Z,9.60
2023-04-20T03:22:08.013Z,9.40
2023-04-20T03:22:42.716Z,8.90
2023-04-20T03:23:17.203Z,9.20
2023-04-20T03:23:50.556Z,9.20
2023-04-20T03:24:24.290Z,9.80
2023-04-20T03:24:58.271Z,9.10
2023-04-20T03:25:52.282Z,8.60
2023-04-20T03:26:38.861Z,8.30
2023-04-20T03:27:23.676Z,8.40
2023-04-20T03:28:16.788Z,8.00
2023-04-20T03:28:53.401Z,8.10
2023-04-20T03:29:29.160Z,8.20
2023-04-20T03:30:03.132Z,8.30
2023-04-20T03:30:37.244Z,7.80
2023-04-20T03:31:14.974Z,8.80
2023-04-20T03:31:48.934Z,9.20
2023-04-20T03:32:22.320Z,8.40
2023-04-20T03:32:55.873Z,8.90
2023-04-20T03:33:29.473Z,8.80
2023-04-20T03:34:03.148Z,9.10
2023-04-20T03:34:36.848Z,9.80
2023-04-20T03:35:10.475Z,9.10
2023-04-20T03:35:44.037Z,9.00
2023-04-20T03:36:17.564Z,9.10
2023-04-20T03:36:51.000Z,9.20
2023-04-20T03:37:24.303Z,8.20
2023-04-20T03:37:58.456Z,8.80
2023-04-20T03:38:31.834Z,8.40
2023-04-20T03:39:05.156Z,8.20
2023-04-20T03:39:38.553Z,7.90
2023-04-20T03:40:12.418Z,8.10
2023-04-20T03:40:46.295Z,8.10
2023-04-20T03:41:19.661Z,8.20
2023-04-20T03:41:52.962Z,7.70
2023-04-20T03:42:26.386Z,7.70
2023-04-20T03:43:01.030Z,7.80
2023-04-20T03:43:35.172Z,7.90
2023-04-20T03:44:08.675Z,8.30
2023-04-20T03:44:44.115Z,7.80
2023-04-20T03:45:20.298Z,7.30
2023-04-20T03:45:58.024Z,7.20
2023-04-20T03:46:31.349Z,7.10
2023-04-20T03:47:04.938Z,7.90
2023-04-20T03:47:38.992Z,7.80
2023-04-20T03:48:12.259Z,7.90
2023-04-20T03:48:45.578Z,7.00
2023-04-20T03:49:24.464Z,7.20
2023-04-20T03:49:57.755Z,6.30
2023-04-20T03:50:31.098Z,7.40
2023-04-20T03:51:05.005Z,7.10
2023-04-20T03:51:38.344Z,7.30
2023-04-20T03:52:12.553Z,7.50
2023-04-20T03:52:46.460Z,7.20
2023-04-20T03:53:19.804Z,6.70
2023-04-20T03:53:53.256Z,7.40
2023-04-20T03:54:29.529Z,7.50
2023-04-20T03:55:03.026Z,7.00
2023-04-20T03:55:36.498Z,7.50
2023-04-20T03:56:12.936Z,6.80
2023-04-20T03:56:49.863Z,7.00
2023-04-20T03:57:23.607Z,7.30
2023-04-20T03:57:57.009Z,7.40
2023-04-20T03:58:31.237Z,7.00
2023-04-20T03:59:12.370Z,6.60
2023-04-20T03:59:47.190Z,6.50
2023-04-20T04:00:23.164Z,6.70
2023-04-20T04:01:07.233Z,7.00
2023-04-20T04:01:41.187Z,6.80
2023-04-20T04:02:14.847Z,6.30
2023-04-20T04:02:49.619Z,6.60
2023-04-20T04:03:28.822Z,7.70
2023-04-20T04:04:02.730Z,6.50
2023-04-20T04:04:39.587Z,6.30
2023-04-20T04:05:13.185Z,6.30
2023-04-20T04:05:46.586Z,7.00
2023-04-20T04:06:20.085Z,6.70
2023-04-20T04:06:53.345Z,6.50
2023-04-20T04:07:26.725Z,7.10
2023-04-20T04:08:00.163Z,7.20
2023-04-20T04:08:33.540Z,6.90
2023-04-20T04:09:07.826Z,7.10
2023-04-20T04:09:41.542Z,6.80
2023-04-20T04:10:16.293Z,6.50
2023-04-20T04:10:50.177Z,7.00
2023-04-20T04:11:25.643Z,6.40
2023-04-20T04:11:59.153Z,6.70
2023-04-20T04:12:33.025Z,6.70
2023-04-20T04:13:06.644Z,6.90
2023-04-20T04:13:39.961Z,6.90
2023-04-20T04:14:14.099Z,7.10
2023-04-20T04:14:48.055Z,6.80
2023-04-20T04:15:21.602Z,7.10
2023-04-20T04:15:59.690Z,6.90
2023-04-20T04:16:33.454Z,7.00
2023-04-20T04:17:08.275Z,6.90
2023-04-20T04:17:42.679Z,6.80
2023-04-20T04:18:16.481Z,7.00
2023-04-20T04:18:49.765Z,6.40
2023-04-20T04:19:23.019Z,7.00
2023-04-20T04:19:56.541Z,6.80
2023-04-20T04:20:30.122Z,6.40
2023-04-20T04:21:04.042Z,6.90
2023-04-20T04:21:37.918Z,5.90
2023-04-20T04:22:11.814Z,6.70
2023-04-20T04:22:52.306Z,6.90
2023-04-20T04:23:51.432Z,6.00
2023-04-20T04:24:35.078Z,6.30
2023-04-20T04:25:51.467Z,6.20
2023-04-20T04:26:27.590Z,6.20
2023-04-20T04:27:05.578Z,6.40
2023-04-20T04:27:41.551Z,6.50
2023-04-20T04:28:15.546Z,6.60
2023-04-20T04:28:56.434Z,6.80
2023-04-20T04:29:30.372Z,6.60
2023-04-20T04:30:07.546Z,6.50
2023-04-20T04:30:42.340Z,7.00
2023-04-20T04:31:17.631Z,6.50
2023-04-20T04:31:51.206Z,6.30
2023-04-20T04:32:24.741Z,6.60
2023-04-20T04:32:59.921Z,6.60
2023-04-20T04:33:35.171Z,6.70
2023-04-20T04:34:08.776Z,6.70
2023-04-20T04:34:53.829Z,6.30
2023-04-20T04:35:27.486Z,6.30
2023-04-20T04:36:04.449Z,6.60
2023-04-20T04:36:39.919Z,6.70
2023-04-20T04:37:14.687Z,6.30
2023-04-20T04:37:54.350Z,6.50
2023-04-20T04:38:28.251Z,6.80
2023-04-20T04:39:01.593Z,6.60
2023-04-20T04:39:35.713Z,6.90
2023-04-20T04:40:15.538Z,6.50
2023-04-20T04:40:49.062Z,6.10
2023-04-20T04:41:23.678Z,6.80
2023-04-20T04:41:57.978Z,6.40
2023-04-20T04:42:37.007Z,6.60
2023-04-20T04:43:11.168Z,6.30
2023-04-20T04:43:48.219Z,6.10
2023-04-20T04:44:32.107Z,6.00
2023-04-20T04:45:06.212Z,6.80
2023-04-20T04:45:41.650Z,6.20
2023-04-20T04:46:16.072Z,6.10
2023-04-20T04:46:49.629Z,6.50
2023-04-20T04:47:23.965Z,6.70
2023-04-20T04:47:59.196Z,6.40
2023-04-20T04:48:32.602Z,6.30
2023-04-20T04:49:06.386Z,6.20
2023-04-20T04:49:40.933Z,6.20
2023-04-20T04:50:14.363Z,6.20
2023-04-20T04:50:47.816Z,6.50
2023-04-20T04:51:21.406Z,6.10
2023-04-20T04:51:56.174Z,6.30
2023-04-20T04:52:29.795Z,6.50
2023-04-20T04:53:03.418Z,6.20
2023-04-20T04:53:37.220Z,6.50
2023-04-20T04:54:10.572Z,6.20
2023-04-20T04:54:44.090Z,6.70
2023-04-20T04:55:17.760Z,6.60
2023-04-20T04:55:51.284Z,6.40
2023-04-20T04:56:25.074Z,5.90
2023-04-20T04:57:01.157Z,6.20
2023-04-20T04:57:34.740Z,6.30
2023-04-20T04:58:08.257Z,6.00
2023-04-20T04:58:41.553Z,6.10
2023-04-20T04:59:15.059Z,6.60
2023-04-20T04:59:48.812Z,6.50
2023-04-20T05:00:22.937Z,6.60
2023-04-20T05:00:56.546Z,6.40
2023-04-20T05:01:30.080Z,6.60
2023-04-20T05:02:03.776Z,6.70
2023-04-20T05:02:37.618Z,6.40
2023-04-20T05:03:11.529Z,6.70
2023-04-20T05:03:45.290Z,6.10
2023-04-20T05:04:18.937Z,6.70
2023-04-20T05:04:52.616Z,6.90
2023-04-20T05:05:26.079Z,6.30
2023-04-20T05:06:00.176Z,6.60
2023-04-20T05:06:33.579Z,6.80
2023-04-20T05:07:07.387Z,6.70
2023-04-20T05:07:40.956Z,6.80
2023-04-20T05:08:14.472Z,6.50
2023-04-20T05:08:48.621Z,7.30
2023-04-20T05:09:21.935Z,7.70
2023-04-20T05:09:58.206Z,7.70
2023-04-20T05:10:31.692Z,7.90
2023-04-20T05:11:05.785Z,7.70
2023-04-20T05:11:39.136Z,7.70
2023-04-20T05:12:12.453Z,7.30
2023-04-20T05:12:46.823Z,7.40
2023-04-20T05:13:20.795Z,7.60
2023-04-20T05:13:54.960Z,7.70
2023-04-20T05:14:36.949Z,7.80
2023-04-20T05:15:10.768Z,7.60
2023-04-20T05:17:19.765Z,6.60
2023-04-20T05:17:53.409Z,7.40
2023-04-20T05:18:26.635Z,7.70
2023-04-20T05:19:00.168Z,7.40
2023-04-20T05:19:33.853Z,7.70
2023-04-20T05:20:10.757Z,7.80
2023-04-20T05:20:44.025Z,7.60
2023-04-20T05:21:17.632Z,7.60
2023-04-20T05:21:51.308Z,7.40
2023-04-20T05:22:24.900Z,7.00
2023-04-20T05:23:01.288Z,7.30
2023-04-20T05:23:34.672Z,7.80
2023-04-20T05:24:11.942Z,7.90
2023-04-20T05:24:47.883Z,7.80
2023-04-20T05:25:21.845Z,7.60
2023-04-20T05:25:55.637Z,7.90
2023-04-20T05:26:31.505Z,8.10
2023-04-20T05:27:05.056Z,7.80
2023-04-20T05:27:38.780Z,8.30
2023-04-20T05:28:12.347Z,8.00
2023-04-20T05:28:46.018Z,8.00
2023-04-20T05:29:20.606Z,8.10
2023-04-20T05:29:54.004Z,8.30
2023-04-20T05:30:29.951Z,8.10
2023-04-20T05:31:03.711Z,8.30
2023-04-20T05:31:37.257Z,7.90
2023-04-20T05:32:10.993Z,7.90
2023-04-20T05:32:44.550Z,8.10
2023-04-20T05:33:17.956Z,7.70
2023-04-20T05:33:51.298Z,8.30
2023-04-20T05:34:24.806Z,8.10
2023-04-20T05:34:58.672Z,7.80
2023-04-20T05:35:32.300Z,7.80
2023-04-20T05:36:09.580Z,8.70
2023-04-20T05:36:43.473Z,8.00
2023-04-20T05:37:17.505Z,7.70
2023-04-20T05:37:51.061Z,8.20
2023-04-20T05:38:25.915Z,8.00
2023-04-20T05:38:59.500Z,8.40
2023-04-20T05:39:33.019Z,8.20
2023-04-20T05:40:07.790Z,8.20
2023-04-20T05:40:41.246Z,8.80
2023-04-20T05:41:14.633Z,7.60
2023-04-20T05:41:48.687Z,8.00
2023-04-20T05:42:22.302Z,8.50
2023-04-20T05:42:55.937Z,8.10
2023-04-20T05:43:29.722Z,8.50
2023-04-20T05:44:03.419Z,7.90
2023-04-20T05:44:37.267Z,8.30
2023-04-20T05:45:11.597Z,8.70
2023-04-20T05:45:46.812Z,8.20
2023-04-20T05:46:21.269Z,8.70
2023-04-20T05:46:54.765Z,8.10
2023-04-20T05:47:28.486Z,7.80
2023-04-20T05:48:02.099Z,8.90
2023-04-20T05:48:36.093Z,9.00
2023-04-20T05:49:09.667Z,9.10
2023-04-20T05:49:43.266Z,8.60
2023-04-20T05:50:16.821Z,8.50
2023-04-20T05:50:50.106Z,9.10
2023-04-20T05:51:23.543Z,8.70
2023-04-20T05:51:57.752Z,8.80
2023-04-20T06:01:58.895Z,7.40
2023-04-20T06:04:11.381Z,7.40
2023-04-20T06:11:32.736Z,7.50
2023-04-20T06:12:06.336Z,8.60
2023-04-20T06:12:41.787Z,8.30
2023-04-20T06:13:15.262Z,8.90
2023-04-20T06:13:48.510Z,8.90
2023-04-20T06:14:22.052Z,8.00
2023-04-20T06:14:55.324Z,8.30
2023-04-20T06:15:28.594Z,8.30
2023-04-20T06:16:02.048Z,8.40
2023-04-20T06:16:35.919Z,8.70
2023-04-20T06:17:09.427Z,8.30
2023-04-20T06:17:42.907Z,8.70
2023-04-20T06:18:16.509Z,9.10
2023-04-20T06:18:51.177Z,8.60
2023-04-20T06:19:24.491Z,8.50
2023-04-20T06:19:57.954Z,8.30
2023-04-20T06:20:31.318Z,8.60
2023-04-20T06:21:04.969Z,8.90
2023-04-20T06:21:38.391Z,9.00
2023-04-20T06:22:11.765Z,8.90
2023-04-20T06:22:45.712Z,8.60
2023-04-20T06:23:19.495Z,8.70
2023-04-20T06:23:52.897Z,8.60
2023-04-20T06:24:28.100Z,8.80
2023-04-20T06:25:01.643Z,8.70
2023-04-20T06:25:36.878Z,8.70
2023-04-20T06:26:11.402Z,8.60
2023-04-20T06:26:44.777Z,8.50
2023-04-20T06:27:18.167Z,8.20
2023-04-20T06:27:52.846Z,8.70
2023-04-20T06:28:26.477Z,8.60
2023-04-20T06:28:59.859Z,8.50
2023-04-20T06:29:33.203Z,8.90
2023-04-20T06:30:07.048Z,8.40
2023-04-20T06:30:40.372Z,8.40
2023-04-20T06:31:13.769Z,8.70
2023-04-20T06:31:47.313Z,8.90
2023-04-20T06:32:20.931Z,8.90
2023-04-20T06:32:54.272Z,8.50
2023-04-20T06:33:27.949Z,8.50
2023-04-20T06:34:04.203Z,8.30
2023-04-20T06:34:37.848Z,8.00
2023-04-20T06:35:11.267Z,8.20
2023-04-20T06:35:50.119Z,8.90
2023-04-20T06:36:24.188Z,8.00
2023-04-20T06:36:57.862Z,8.50
2023-04-20T06:37:31.699Z,8.20
2023-04-20T06:38:05.536Z,8.30
2023-04-20T06:38:39.432Z,8.10
2023-04-20T06:39:12.722Z,7.70
2023-04-20T06:39:46.152Z,8.10
2023-04-20T06:40:19.650Z,8.60
2023-04-20T06:40:53.262Z,8.20
2023-04-20T06:41:26.633Z,8.10
2023-04-20T06:42:00.144Z,8.20
2023-04-20T06:42:34.617Z,8.10
2023-04-20T06:43:08.773Z,8.30
2023-04-20T06:43:42.539Z,8.10
2023-04-20T06:44:16.053Z,7.90
2023-04-20T06:44:49.478Z,8.40
2023-04-20T06:45:23.019Z,7.60
2023-04-20T06:45:56.500Z,8.40
2023-04-20T06:46:30.025Z,7.90
2023-04-20T06:47:03.548Z,7.80
2023-04-20T06:47:37.292Z,7.60
2023-04-20T06:48:24.038Z,8.10
2023-04-20T06:49:04.305Z,8.20
2023-04-20T06:49:39.509Z,8.10
2023-04-20T06:50:12.911Z,7.90
2023-04-20T06:50:50.444Z,8.20
2023-04-20T06:51:26.897Z,7.80
2023-04-20T06:52:01.195Z,7.70
2023-04-20T06:52:34.890Z,7.80
2023-04-20T06:53:08.269Z,7.90
2023-04-20T06:53:41.725Z,8.10
2023-04-20T06:54:15.213Z,8.20
2023-04-20T06:54:48.684Z,7.60
2023-04-20T06:55:22.064Z,8.00
2023-04-20T06:55:55.971Z,8.00
2023-04-20T06:56:29.370Z,8.40
2023-04-20T06:57:02.812Z,7.70
2023-04-20T06:57:38.750Z,7.40
2023-04-20T06:58:12.182Z,7.50
2023-04-20T06:58:45.745Z,7.40
2023-04-20T06:59:19.865Z,7.60
2023-04-20T06:59:53.558Z,7.80
2023-04-20T07:00:28.498Z,8.10
2023-04-20T07:01:06.317Z,6.90
2023-04-20T07:01:56.359Z,7.30
2023-04-20T07:02:51.613Z,7.60
2023-04-20T07:03:25.666Z,7.00
2023-04-20T07:03:59.693Z,7.10
2023-04-20T07:04:41.201Z,7.10
2023-04-20T07:05:20.596Z,7.40
2023-04-20T07:05:55.712Z,7.20
2023-04-20T07:06:29.345Z,6.70
2023-04-20T07:07:13.905Z,7.30
2023-04-20T07:07:47.637Z,6.90
2023-04-20T07:08:24.670Z,7.10
2023-04-20T07:08:58.256Z,6.90
2023-04-20T07:09:31.764Z,7.30
2023-04-20T07:10:06.740Z,6.90
2023-04-20T07:10:43.458Z,7.30
2023-04-20T07:11:17.273Z,7.20
2023-04-20T07:11:53.634Z,7.30
2023-04-20T07:12:29.966Z,7.00
2023-04-20T07:13:06.516Z,7.20
2023-04-20T07:13:45.295Z,7.00
2023-04-20T07:14:21.017Z,7.10
2023-04-20T07:14:55.452Z,7.20
2023-04-20T07:15:31.987Z,7.10
2023-04-20T07:16:05.663Z,6.80
2023-04-20T07:16:39.156Z,7.10
2023-04-20T07:17:12.698Z,6.90
2023-04-20T07:17:46.181Z,7.00
2023-04-20T07:18:19.491Z,7.30
2023-04-20T07:18:53.606Z,7.40
2023-04-20T07:19:33.049Z,7.20
2023-04-20T07:20:09.761Z,7.80
2023-04-20T07:20:43.491Z,7.10
2023-04-20T07:21:17.043Z,7.60
2023-04-20T07:21:50.740Z,7.80
2023-04-20T07:22:35.140Z,7.10
2023-04-20T07:23:14.107Z,7.10
2023-04-20T07:23:48.411Z,7.60
2023-04-20T07:24:21.595Z,7.60
2023-04-20T07:24:54.761Z,8.00
2023-04-20T07:25:28.112Z,7.60
2023-04-20T07:26:01.457Z,7.20
2023-04-20T07:26:34.700Z,7.60
2023-04-20T07:27:09.396Z,7.30
2023-04-20T07:27:42.721Z,7.70
2023-04-20T07:28:15.961Z,7.90
2023-04-20T07:28:49.265Z,7.60
2023-04-20T07:29:22.719Z,7.50
2023-04-20T07:29:59.167Z,8.00
2023-04-20T07:30:32.670Z,7.80
2023-04-20T07:31:06.336Z,7.50
2023-04-20T07:31:39.886Z,7.80
2023-04-20T07:32:13.662Z,7.80
2023-04-20T07:32:47.517Z,7.90
2023-04-20T07:33:21.256Z,7.80
2023-04-20T07:33:54.713Z,8.20
2023-04-20T07:34:27.934Z,7.80
2023-04-20T07:35:01.344Z,8.50
2023-04-20T07:35:37.639Z,7.60
2023-04-20T07:36:11.033Z,7.20
2023-04-20T07:36:44.398Z,8.10
2023-04-20T07:37:20.433Z,7.50
2023-04-20T07:37:53.871Z,7.70
2023-04-20T07:38:27.412Z,7.40
2023-04-20T07:39:01.040Z,7.60
2023-04-20T07:39:34.560Z,7.40
2023-04-20T07:40:09.091Z,7.50
2023-04-20T07:40:43.600Z,7.80
2023-04-20T07:41:17.021Z,7.40
2023-04-20T07:41:51.005Z,7.40
2023-04-20T07:42:24.296Z,8.20
2023-04-20T07:42:57.725Z,8.20
2023-04-20T07:43:30.965Z,8.20
2023-04-20T07:44:04.251Z,8.00
2023-04-20T07:44:37.637Z,8.20
2023-04-20T07:45:11.526Z,8.00
2023-04-20T07:45:45.079Z,8.30
2023-04-20T07:46:24.527Z,8.20
2023-04-20T07:46:58.051Z,8.50
2023-04-20T07:47:31.493Z,8.20
2023-04-20T07:48:05.750Z,7.80
2023-04-20T07:48:39.132Z,7.90
2023-04-20T07:49:12.561Z,7.70
2023-04-20T07:49:46.910Z,8.20
2023-04-20T07:50:20.264Z,7.70
2023-04-20T07:50:53.579Z,8.50
2023-04-20T07:51:30.433Z,8.10
2023-04-20T07:52:15.746Z,7.40
2023-04-20T07:52:50.267Z,7.30
2023-04-20T07:53:23.778Z,7.40
2023-04-20T07:53:57.444Z,8.00
2023-04-20T07:54:30.782Z,7.30
2023-04-20T07:55:05.417Z,7.60
2023-04-20T07:55:38.779Z,7.80
2023-04-20T07:56:11.993Z,7.70
2023-04-20T07:56:45.230Z,7.20
2023-04-20T07:57:18.602Z,7.50
2023-04-20T07:57:52.003Z,7.50
2023-04-20T07:58:25.408Z,7.70
2023-04-20T07:58:58.858Z,7.40
2023-04-20T07:59:33.043Z,7.10
2023-04-20T08:00:10.392Z,7.50
2023-04-20T08:00:47.555Z,7.40
2023-04-20T08:01:27.430Z,7.30
2023-04-20T08:02:02.746Z,7.00
2023-04-20T08:02:36.736Z,7.20
2023-04-20T08:03:10.643Z,7.50